Latest Weather Observations for Grove

IDT60901

Issued at 9:51 am EDT Wednesday 20 February 2019 (issued every 10 minutes, with the page automatically refreshed every 10 minutes)

About weather observations | Map of Hobart area stations | Latest observations for Hobart area | Other Formats
Station Details ID: 094220 Name: GROVE (RESEARCH STATION) Lat: -42.99 Lon: 147.07 Height: 65.0 m
Data from the previous 72 hours. | See also: Recent months at Grove
Date/Time
EDT
Temp
°C
App
Temp
°C
Dew
Point
°C
Rel
Hum
%
Delta-T
°C
Wind Press
QNH
hPa
Press
MSL
hPa
Rain since
9am
mm
Dir  Spd
km/h
Gust
km/h
Spd
kts
Gust
kts
20/09:30am 16.7 13.7 7.8 55 4.5 NNW 13 28 7 15 - - 0.0
20/09:00am 16.5 12.3 7.3 54 4.6 NW 19 26 10 14 - - 0.0
20/08:30am 15.4 11.8 6.9 57 4.2 NNW 15 22 8 12 - - 0.0
20/08:00am 14.1 11.6 6.4 60 3.7 NE 9 20 5 11 - - 0.0
20/07:30am 13.8 11.6 6.3 60 3.6 NE 7 13 4 7 - - 0.0
20/07:00am 12.8 10.2 6.3 64 3.1 E 9 13 5 7 - - 0.0
20/06:30am 11.7 9.4 5.9 67 2.7 ENE 7 13 4 7 - - 0.0
20/06:00am 13.1 10.4 5.4 59 3.6 ENE 9 13 5 7 - - 0.0
20/05:30am 13.4 11.3 6.0 61 3.5 ENE 6 9 3 5 - - 0.0
20/05:00am 13.3 11.1 5.4 59 3.7 N 6 9 3 5 - - 0.0
20/04:30am 13.4 9.8 4.8 56 4.0 NNW 13 22 7 12 - - 0.0
20/04:00am 13.4 9.4 4.8 56 4.0 NNW 15 26 8 14 - - 0.0
20/03:30am 12.8 9.3 5.3 60 3.5 N 13 22 7 12 - - 0.0
20/03:00am 12.7 10.0 5.4 61 3.4 N 9 13 5 7 - - 0.0
20/02:30am 12.6 9.9 5.8 63 3.2 N 9 15 5 8 - - 0.0
20/02:00am 12.3 10.5 5.4 63 3.2 N 4 9 2 5 - - 0.0
20/01:30am 12.0 10.3 5.8 66 2.9 WNW 4 11 2 6 - - 0.0
20/01:00am 12.0 9.9 5.8 66 2.9 NNE 6 9 3 5 - - 0.0
20/12:30am 12.7 9.6 5.4 61 3.4 N 11 15 6 8 - - 0.0
20/12:00am 13.5 10.2 4.6 55 4.1 WNW 11 20 6 11 - - 0.0
 
Date/Time
EDT
Temp
°C
App
Temp
°C
Dew
Point
°C
Rel
Hum
%
Delta-T
°C
Wind Press
QNH
hPa
Press
MSL
hPa
Rain since
9am
mm
Dir  Spd
km/h
Gust
km/h
Spd
kts
Gust
kts
19/11:30pm 13.7 10.0 4.6 54 4.2 NW 13 24 7 13 - - 0.0
19/11:00pm 13.7 10.8 4.9 55 4.1 N 9 13 5 7 - - 0.0
19/10:30pm 13.8 10.2 5.0 55 4.1 NNW 13 20 7 11 - - 0.0
19/10:00pm 13.9 9.1 4.9 54 4.2 NNW 19 30 10 16 - - 0.0
19/09:30pm 14.0 10.6 6.1 59 3.8 NNW 13 22 7 12 - - 0.0
19/09:00pm 14.6 11.6 6.1 56 4.1 NW 11 19 6 10 - - 0.0
19/08:30pm 14.6 12.4 6.3 57 4.0 N 7 13 4 7 - - 0.0
19/08:00pm 14.9 11.8 5.7 54 4.4 W 11 19 6 10 - - 0.0
19/07:30pm 15.5 12.2 6.2 54 4.5 W 13 20 7 11 - - 0.0
19/07:00pm 15.6 12.2 6.1 53 4.6 W 13 22 7 12 - - 0.0
19/06:30pm 15.9 12.8 5.7 50 4.9 NNW 11 19 6 10 - - 0.0
19/06:00pm 16.0 13.6 6.9 54 4.5 W 9 17 5 9 - - 0.0
19/05:30pm 16.2 12.5 6.1 51 4.9 WNW 15 24 8 13 - - 0.0
19/05:00pm 16.5 11.8 5.2 47 5.4 NW 19 32 10 17 - - 0.0
19/04:30pm 16.9 14.1 6.8 51 5.0 SSW 11 17 6 9 - - 0.0
19/04:00pm 15.1 11.3 7.7 61 3.7 SW 17 28 9 15 - - 0.0
19/03:30pm 16.6 11.7 5.1 46 5.5 W 20 30 11 16 - - 0.0
19/03:00pm 17.2 13.8 5.7 46 5.6 W 13 20 7 11 - - 0.0
19/02:30pm 16.1 12.1 4.9 47 5.3 WSW 15 20 8 11 - - 0.0
19/02:00pm 15.9 10.4 4.1 45 5.5 W 22 37 12 20 - - 0.0
19/01:30pm 15.7 10.8 4.1 46 5.4 WSW 19 30 10 16 - - 0.0
19/01:00pm 15.7 11.6 4.1 46 5.4 WSW 15 24 8 13 - - 0.0
19/12:30pm 14.7 10.3 4.6 50 4.7 WSW 17 41 9 22 - - 0.0
19/12:00pm 14.2 11.7 5.0 54 4.3 N 7 20 4 11 - - 0.0
19/11:30am 13.6 8.5 4.2 53 4.3 W 20 37 11 20 - - 0.0
19/11:00am 14.1 8.8 2.9 47 5.0 WSW 20 33 11 18 - - 0.0
19/10:30am 15.0 10.0 3.7 46 5.2 W 19 32 10 17 - - 0.0
19/10:00am 14.8 9.6 3.4 46 5.2 W 20 37 11 20 - - 0.0
19/09:30am 14.5 10.8 4.6 51 4.6 NNW 13 19 7 10 - - 0.0
19/09:00am 13.9 9.9 2.9 47 4.9 W 13 22 7 12 - - 1.0
19/08:30am 13.3 8.2 3.3 50 4.5 NW 19 24 10 13 - - 1.0
19/08:00am 12.9 8.1 2.7 50 4.5 WSW 17 30 9 16 - - 1.0
19/07:30am 12.7 8.0 3.0 51 4.3 W 17 28 9 15 - - 1.0
19/07:00am 12.4 8.4 2.9 52 4.2 W 13 20 7 11 - - 1.0
19/06:30am 11.8 7.4 2.9 54 3.9 WNW 15 39 8 21 - - 1.0
19/06:00am 11.1 8.5 3.4 59 3.4 E 6 9 3 5 - - 1.0
19/05:30am 12.4 7.0 2.3 50 4.4 W 20 32 11 17 - - 1.0
19/05:00am 11.6 9.0 3.2 56 3.7 NW 6 13 3 7 - - 1.0
19/04:30am 11.8 8.1 2.3 52 4.1 NNE 11 17 6 9 - - 1.0
19/04:00am 12.4 8.7 2.3 50 4.4 W 11 24 6 13 - - 1.0
19/03:30am 11.4 8.6 3.2 57 3.6 N 7 11 4 6 - - 1.0
19/03:00am 12.4 8.6 1.7 48 4.6 W 11 19 6 10 - - 1.0
19/02:30am 11.1 8.5 3.4 59 3.4 NNW 6 11 3 6 - - 1.0
19/02:00am 11.7 8.9 3.1 55 3.8 NNW 7 19 4 10 - - 1.0
19/01:30am 11.7 8.5 3.1 55 3.8 NNW 9 15 5 8 - - 1.0
19/01:00am 11.9 7.9 3.0 54 3.9 NW 13 20 7 11 - - 1.0
19/12:30am 12.1 8.3 1.9 49 4.4 WNW 11 22 6 12 - - 1.0
19/12:00am 11.8 7.3 2.3 52 4.1 W 15 28 8 15 - - 1.0
 
Date/Time
EDT
Temp
°C
App
Temp
°C
Dew
Point
°C
Rel
Hum
%
Delta-T
°C
Wind Press
QNH
hPa
Press
MSL
hPa
Rain since
9am
mm
Dir  Spd
km/h
Gust
km/h
Spd
kts
Gust
kts
18/11:30pm 12.3 7.7 1.8 48 4.5 WNW 15 30 8 16 - - 1.0
18/11:00pm 12.7 6.7 1.2 45 4.9 NW 22 41 12 22 - - 1.0
18/10:30pm 10.8 8.2 4.1 63 3.0 S 7 11 4 6 - - 1.0
18/10:00pm 12.2 8.3 3.2 54 4.0 WNW 13 24 7 13 - - 1.0
18/09:30pm 11.8 7.2 3.7 57 3.6 W 17 32 9 17 - - 1.0
18/09:00pm 12.2 8.2 4.8 60 3.4 W 15 32 8 17 - - 0.8
18/08:30pm 11.4 7.9 8.6 83 1.4 WSW 17 24 9 13 - - 0.8
18/08:00pm 13.5 8.4 5.9 60 3.6 WSW 22 33 12 18 - - 0.0
18/07:30pm 14.2 9.6 5.5 56 4.1 WNW 19 30 10 16 - - 0.0
18/07:00pm 13.7 9.4 7.1 64 3.2 W 19 30 10 16 - - 0.0
18/06:30pm 15.0 9.8 5.3 52 4.6 WNW 22 39 12 21 - - 0.0
18/06:00pm 15.8 12.0 5.6 50 4.9 W 15 35 8 19 - - 0.0
18/05:45pm 15.9 9.6 5.5 50 5.0 W 28 46 15 25 - - 0.0
18/05:30pm 16.4 10.7 5.1 47 5.4 WNW 24 37 13 20 - - 0.0
18/05:17pm 16.4 10.0 5.1 47 5.4 WNW 28 48 15 26 - - 0.0
18/05:16pm 16.4 10.0 5.1 47 5.4 WNW 28 48 15 26 - - 0.0
18/05:00pm 17.0 12.2 5.7 47 5.5 WNW 20 37 11 20 - - 0.0
18/04:33pm 17.8 11.3 4.6 41 6.3 WNW 28 46 15 25 - - 0.0
18/04:32pm 17.8 11.3 4.6 41 6.3 WNW 28 46 15 25 - - 0.0
18/04:30pm 18.2 12.1 4.6 40 6.5 WNW 26 39 14 21 - - 0.0
18/04:00pm 19.7 14.4 5.2 38 7.1 WNW 22 46 12 25 - - 0.0
18/03:30pm 19.2 13.7 5.9 41 6.6 WNW 24 41 13 22 - - 0.0
18/03:00pm 18.2 11.2 6.0 44 6.0 WNW 32 67 17 36 - - 0.0
18/02:54pm 19.3 12.3 4.0 36 7.3 WNW 30 67 16 36 - - 0.0
18/02:53pm 19.3 11.9 4.0 36 7.3 WNW 32 67 17 36 - - 0.0
18/02:30pm 20.1 13.4 3.5 33 7.9 NW 28 46 15 25 - - 0.0
18/02:11pm 20.0 11.5 3.0 32 8.0 NW 37 56 20 30 - - 0.0
18/02:05pm 20.2 11.4 3.6 33 7.9 NW 39 56 21 30 - - 0.0
18/02:03pm 21.0 13.5 3.4 31 8.4 W 32 50 17 27 - - 0.0
18/02:02pm 21.0 14.3 3.4 31 8.4 WNW 28 50 15 27 - - 0.0
18/02:00pm 20.7 14.0 3.5 32 8.2 NW 28 44 15 24 - - 0.0
18/01:30pm 20.0 11.8 4.5 36 7.5 NW 37 59 20 32 - - 0.0
18/01:01pm 20.0 13.4 4.2 35 7.6 NNW 28 48 15 26 - - 0.0
18/01:00pm 20.1 13.9 4.1 35 7.7 NNW 26 46 14 25 - - 0.0
18/12:46pm 19.9 12.6 5.5 39 7.1 NW 33 52 18 28 - - 0.0
18/12:45pm 19.9 12.6 5.5 39 7.1 NW 33 54 18 29 - - 0.0
18/12:44pm 19.8 11.7 5.4 39 7.1 NW 37 52 20 28 - - 0.0
18/12:43pm 19.8 11.7 5.4 39 7.1 NW 37 54 20 29 - - 0.0
18/12:42pm 20.0 13.6 5.1 37 7.3 WNW 28 54 15 29 - - 0.0
18/12:41pm 20.0 13.6 5.1 37 7.3 WNW 28 54 15 29 - - 0.0
18/12:30pm 20.3 15.0 6.9 41 6.8 WNW 24 39 13 21 - - 0.0
18/12:03pm 19.5 13.1 7.1 44 6.3 W 30 54 16 29 - - 0.0
18/12:02pm 19.5 13.1 7.1 44 6.3 W 30 54 16 29 - - 0.0
18/12:00pm 20.0 14.5 7.5 44 6.4 W 26 41 14 22 - - 0.0
18/11:30am 20.6 14.3 5.8 38 7.4 NW 28 41 15 22 - - 0.0
18/11:00am 20.1 14.8 6.9 42 6.7 NW 24 43 13 23 - - 0.0
18/10:30am 19.4 15.2 8.2 48 5.8 W 20 33 11 18 - - 0.0
18/10:00am 19.3 15.7 10.0 55 5.0 WSW 19 24 10 13 - - 0.0
18/09:30am 17.3 16.8 12.6 74 2.6 ESE 7 11 4 6 - - 0.0
18/09:00am 15.8 15.5 12.7 82 1.7 NNW 6 9 3 5 - - 0.0
18/08:30am 15.6 14.2 12.3 81 1.8 SSW 11 19 6 10 - - 0.0
18/08:00am 15.7 13.5 12.2 80 1.9 SSW 15 24 8 13 - - 0.0
18/07:30am 16.0 13.2 11.4 74 2.5 SSW 17 28 9 15 - - 0.0
18/07:00am 16.3 13.9 11.3 72 2.7 SSW 15 22 8 12 - - 0.0
18/06:30am 16.8 15.9 11.3 70 3.0 WNW 7 15 4 8 - - 0.0
18/06:00am 18.0 16.5 10.6 62 4.0 W 9 15 5 8 - - 0.0
18/05:30am 18.3 16.5 10.7 61 4.1 NNW 11 17 6 9 - - 0.0
18/05:00am 16.8 15.4 11.0 68 3.1 ENE 9 15 5 8 - - 0.0
18/04:30am 16.2 14.9 11.2 72 2.7 ENE 9 15 5 8 - - 0.0
18/04:00am 17.7 15.4 10.6 63 3.8 N 13 20 7 11 - - 0.0
18/03:30am 17.2 15.4 10.7 65 3.5 NNE 11 19 6 10 - - 0.0
18/03:00am 15.8 14.3 10.7 71 2.7 ENE 9 13 5 7 - - 0.0
18/02:30am 14.5 13.1 10.9 79 1.9 ENE 9 13 5 7 - - 0.0
18/02:00am 14.1 13.1 10.9 81 1.7 NE 7 13 4 7 - - 0.0
18/01:30am 12.8 12.0 11.1 89 0.9 NE 6 9 3 5 - - 0.0
18/01:00am 13.4 12.7 11.5 88 1.0 N 6 11 3 6 - - 0.0
18/12:30am 13.2 12.3 11.5 89 0.9 NNW 7 11 4 6 - - 0.0
18/12:00am 13.0 11.8 11.5 91 0.8 NNE 9 11 5 6 - - 0.0
 
Date/Time
EDT
Temp
°C
App
Temp
°C
Dew
Point
°C
Rel
Hum
%
Delta-T
°C
Wind Press
QNH
hPa
Press
MSL
hPa
Rain since
9am
mm
Dir  Spd
km/h
Gust
km/h
Spd
kts
Gust
kts
17/11:30pm 13.5 12.7 11.8 89 0.9 NE 7 9 4 5 - - 0.0
17/11:00pm 14.1 13.6 12.1 88 1.1 ENE 6 11 3 6 - - 0.0
17/10:30pm 15.4 14.9 12.1 81 1.8 NE 6 7 3 4 - - 0.0
17/10:00pm 16.4 16.3 12.0 75 2.4 W 4 7 2 4 - - 0.0
17/09:30pm 17.5 17.3 11.9 69 3.1 SSW 4 7 2 4 - - 0.0
17/09:00pm 18.7 18.0 11.4 62 4.0 W 6 7 3 4 - - 0.0
17/08:30pm 19.4 18.4 11.0 58 4.6 SW 7 13 4 7 - - 0.0
17/08:00pm 19.9 18.8 10.7 55 5.0 SW 7 13 4 7 - - 0.0
17/07:30pm 21.5 18.4 10.3 49 6.1 W 17 28 9 15 - - 0.0
17/07:00pm 21.8 19.0 10.0 47 6.4 WSW 15 24 8 13 - - 0.0
17/06:30pm 22.0 20.0 10.1 46 6.5 WSW 11 19 6 10 - - 0.0
17/06:00pm 23.8 21.4 10.0 41 7.6 WSW 13 20 7 11 - - 0.0
17/05:30pm 22.5 20.9 10.3 46 6.7 S 9 13 5 7 - - 0.0
17/05:00pm 21.8 20.3 10.5 48 6.2 SSW 9 11 5 6 - - 0.0
17/04:30pm 21.7 20.0 9.9 47 6.4 SSW 9 13 5 7 - - 0.0
17/04:00pm 21.4 19.8 10.2 49 6.1 SW 9 15 5 8 - - 0.0
17/03:30pm 22.1 19.7 8.5 41 7.2 S 11 19 6 10 - - 0.0
17/03:00pm 22.9 21.6 9.2 41 7.4 W 6 11 3 6 - - 0.0
17/02:30pm 22.8 20.3 8.3 39 7.7 SSW 11 19 6 10 - - 0.0
17/02:00pm 23.1 20.2 8.2 38 7.9 SW 13 19 7 10 - - 0.0
17/01:30pm 24.4 21.7 9.1 37 8.3 W 13 24 7 13 - - 0.0
17/01:00pm 23.6 21.6 10.2 42 7.4 SW 11 19 6 10 - - 0.0
17/12:30pm 23.4 21.8 10.1 43 7.3 E 9 13 5 7 - - 0.0
17/12:00pm 21.2 19.3 9.2 46 6.4 SSE 9 17 5 9 - - 0.0
17/11:30am 20.2 18.6 10.2 52 5.4 SW 9 13 5 7 - - 0.0
17/11:00am 19.3 18.6 10.2 55 4.9 SSW 4 9 2 5 - - 0.0
17/10:30am 18.3 17.1 10.3 59 4.3 ESE 7 13 4 7 - - 0.0
17/10:00am 17.7 18.1 12.5 71 2.9 NE 2 7 1 4 - - 0.0

Latest Capital City Observations: Canberra | Sydney | Melbourne | Brisbane | Adelaide | Perth | Hobart | Darwin

Other formats

Comma delimited format used in spreadsheet applications
http://www.bom.gov.au/fwo/IDT60901/IDT60901.95977.axf

JavaScript Object Notation format (JSON) in row-major order
http://www.bom.gov.au/fwo/IDT60901/IDT60901.95977.json

Data quality

Most of these data are generated automatically and are frequently updated. Quality checks on data are not normally performed. It is possible for incorrect values to appear. Refer to information at About Latest Weather Observations and please check the disclaimer before using these data.